createdAt,value
2018-03-02T00:01:08.556Z,99784.52
2018-03-02T00:03:37.136Z,99779.21
2018-03-02T00:06:05.821Z,99765.88
2018-03-02T00:08:34.502Z,99761.12
2018-03-02T00:11:03.193Z,99754.38
2018-03-02T00:13:31.829Z,99746.87
2018-03-02T00:16:01.551Z,99740.60
2018-03-02T00:18:30.273Z,99741.94
2018-03-02T00:20:58.958Z,99739.77
2018-03-02T00:23:27.649Z,99745.70
2018-03-02T00:25:56.214Z,99740.58
2018-03-02T00:28:24.917Z,99740.77
2018-03-02T00:30:53.591Z,99738.41
2018-03-02T00:33:22.145Z,99738.22
2018-03-02T00:35:50.864Z,99738.66
2018-03-02T00:38:19.660Z,99738.52
2018-03-02T00:40:48.236Z,99741.49
2018-03-02T00:43:16.922Z,99745.81
2018-03-02T00:45:45.805Z,99736.03
2018-03-02T00:48:14.504Z,99739.93
2018-03-02T00:50:43.148Z,99734.91
2018-03-02T00:53:11.875Z,99730.24
2018-03-02T00:55:40.662Z,99727.39
2018-03-02T00:58:10.128Z,99721.58
2018-03-02T01:00:38.806Z,99715.53
2018-03-02T01:03:07.501Z,99706.72
2018-03-02T01:05:36.186Z,99703.50
2018-03-02T01:08:05.278Z,99702.67
2018-03-02T01:10:33.912Z,99704.66
2018-03-02T01:13:03.363Z,99693.42
2018-03-02T01:15:32.356Z,99682.52
2018-03-02T01:18:00.944Z,99673.75
2018-03-02T01:20:29.728Z,99667.59
2018-03-02T01:22:58.523Z,99658.84
2018-03-02T01:25:27.209Z,99658.56
2018-03-02T01:27:55.833Z,99661.56
2018-03-02T01:30:25.296Z,99648.56
2018-03-02T01:32:53.946Z,99639.19
2018-03-02T01:35:22.666Z,99633.67
2018-03-02T01:37:51.560Z,99641.29
2018-03-02T01:40:20.247Z,99642.27
2018-03-02T01:42:49.031Z,99643.74
2018-03-02T01:45:17.924Z,99626.59
2018-03-02T01:47:46.710Z,99623.66
2018-03-02T01:50:15.396Z,99621.35
2018-03-02T01:52:44.080Z,99622.84
2018-03-02T01:55:12.830Z,99628.77
2018-03-02T01:57:41.454Z,99626.20
2018-03-02T02:00:10.238Z,99622.98
2018-03-02T02:02:38.924Z,99616.48
2018-03-02T02:05:07.575Z,99609.86
2018-03-02T02:07:37.411Z,99609.30
2018-03-02T02:10:06.113Z,99608.92
2018-03-02T02:12:34.796Z,99602.61
2018-03-02T02:15:03.584Z,99607.45
2018-03-02T02:17:32.156Z,99590.88
2018-03-02T02:20:00.855Z,99586.09
2018-03-02T02:22:29.640Z,99584.08
2018-03-02T02:24:58.352Z,99564.53
2018-03-02T02:27:26.903Z,99568.67
2018-03-02T02:29:55.951Z,99568.63
2018-03-02T02:32:25.414Z,99584.80
2018-03-02T02:34:54.036Z,99570.36
2018-03-02T02:37:23.599Z,99573.73
2018-03-02T02:39:52.284Z,99575.31
2018-03-02T02:42:20.915Z,99567.44
2018-03-02T02:44:50.480Z,99572.58
2018-03-02T02:47:19.226Z,99565.38
2018-03-02T02:49:47.949Z,99559.98
2018-03-02T02:52:16.910Z,99562.41
2018-03-02T02:54:45.457Z,99540.97
2018-03-02T02:57:14.991Z,99550.81
2018-03-02T02:59:43.887Z,99538.54
2018-03-02T03:02:12.607Z,99534.78
2018-03-02T03:04:41.276Z,99552.13
2018-03-02T03:07:10.089Z,99561.80
2018-03-02T03:09:38.783Z,99541.73
2018-03-02T03:12:07.352Z,99529.70
2018-03-02T03:14:36.140Z,99526.34
2018-03-02T03:17:04.832Z,99531.09
2018-03-02T03:19:33.475Z,99543.33
2018-03-02T03:22:02.401Z,99536.56
2018-03-02T03:24:30.988Z,99532.95
2018-03-02T03:26:59.674Z,99534.95
2018-03-02T03:29:28.568Z,99542.30
2018-03-02T03:31:57.137Z,99539.41
2018-03-02T03:34:25.831Z,99532.72
2018-03-02T03:36:54.936Z,99534.16
2018-03-02T03:39:23.618Z,99534.39
2018-03-02T03:41:52.258Z,99541.52
2018-03-02T03:44:21.189Z,99531.51
2018-03-02T03:46:49.822Z,99526.77
2018-03-02T03:49:19.283Z,99517.22
2018-03-02T03:51:47.970Z,99527.98
2018-03-02T03:54:16.650Z,99521.73
2018-03-02T03:56:46.136Z,99510.06
2018-03-02T03:59:14.960Z,99511.16
2018-03-02T04:01:44.426Z,99513.20
2018-03-02T04:04:13.067Z,99496.95
2018-03-02T04:06:42.000Z,99502.52
2018-03-02T04:09:10.630Z,99505.89
2018-03-02T04:11:40.090Z,99510.33
2018-03-02T04:14:09.140Z,99511.91
2018-03-02T04:16:37.870Z,99505.19
2018-03-02T04:19:06.421Z,99491.58
2018-03-02T04:21:35.340Z,99485.66
2018-03-02T04:24:03.986Z,99485.97
2018-03-02T04:26:32.628Z,99475.66
2018-03-02T04:29:01.396Z,99472.47
2018-03-02T04:31:30.084Z,99481.91
2018-03-02T04:33:58.877Z,99465.08
2018-03-02T04:36:27.663Z,99459.25
2018-03-02T04:38:56.318Z,99460.75
2018-03-02T04:41:25.035Z,99464.08
2018-03-02T04:43:53.721Z,99466.31
2018-03-02T04:46:22.287Z,99461.26
2018-03-02T04:48:50.995Z,99461.37
2018-03-02T04:51:19.668Z,99448.18
2018-03-02T04:53:48.365Z,99449.67
2018-03-02T04:56:16.987Z,99444.08
2018-03-02T04:58:46.550Z,99453.50
2018-03-02T05:01:15.200Z,99449.42
2018-03-02T05:03:43.921Z,99461.39
2018-03-02T05:06:13.059Z,99461.84
2018-03-02T05:08:42.522Z,99459.20
2018-03-02T05:11:11.170Z,99466.02
2018-03-02T05:13:39.896Z,99450.72
2018-03-02T05:16:08.474Z,99457.23
2018-03-02T05:18:37.167Z,99472.76
2018-03-02T05:21:06.142Z,99455.69
2018-03-02T05:23:34.727Z,99459.16
2018-03-02T05:26:03.321Z,99457.80
2018-03-02T05:28:32.130Z,99453.66
2018-03-02T05:31:00.804Z,99446.08
2018-03-02T05:33:29.450Z,99448.41
2018-03-02T05:35:58.221Z,99437.09
2018-03-02T05:38:27.674Z,99440.63
2018-03-02T05:40:57.102Z,99432.55
2018-03-02T05:43:26.549Z,99454.65
2018-03-02T05:45:55.138Z,99452.81
2018-03-02T05:48:24.529Z,99441.53
2018-03-02T05:50:53.476Z,99440.29
2018-03-02T05:53:22.931Z,99441.90
2018-03-02T05:55:51.562Z,99430.52
2018-03-02T05:58:21.122Z,99429.91
2018-03-02T06:00:49.781Z,99417.98
2018-03-02T06:03:18.487Z,99420.95
2018-03-02T06:05:47.231Z,99421.94
2018-03-02T06:08:15.964Z,99421.20
2018-03-02T06:10:44.652Z,99420.38
2018-03-02T06:13:13.311Z,99428.38
2018-03-02T06:15:42.022Z,99432.16
2018-03-02T06:18:10.670Z,99434.73
2018-03-02T06:20:39.700Z,99433.02
2018-03-02T06:23:08.358Z,99423.83
2018-03-02T06:25:37.072Z,99424.70
2018-03-02T06:28:05.877Z,99421.92
2018-03-02T06:30:34.425Z,99424.08
2018-03-02T06:33:02.977Z,99418.23
2018-03-02T06:35:32.481Z,99415.24
2018-03-02T06:38:01.797Z,99415.63
2018-03-02T06:40:30.343Z,99415.72
2018-03-02T06:42:59.046Z,99411.84
2018-03-02T06:45:28.511Z,99410.52
2018-03-02T06:47:57.155Z,99412.42
2018-03-02T06:50:25.980Z,99408.94
2018-03-02T06:52:54.668Z,99410.78
2018-03-02T06:55:23.339Z,99409.90
2018-03-02T06:57:52.105Z,99407.98
2018-03-02T07:00:20.824Z,99391.83
2018-03-02T07:02:49.510Z,99390.78
2018-03-02T07:05:18.201Z,99390.09
2018-03-02T07:07:46.883Z,99378.73
2018-03-02T07:10:15.469Z,99374.25
2018-03-02T07:12:44.255Z,99377.56
2018-03-02T07:15:12.948Z,99376.89
2018-03-02T07:17:41.626Z,99380.53
2018-03-02T07:20:10.358Z,99384.75
2018-03-02T07:22:39.821Z,99382.69
2018-03-02T07:25:08.447Z,99377.67
2018-03-02T07:27:38.016Z,99374.21
2018-03-02T07:30:06.700Z,99372.59
2018-03-02T07:32:35.321Z,99376.03
2018-03-02T07:35:05.805Z,99368.63
2018-03-02T07:37:34.468Z,99366.65
2018-03-02T07:40:03.178Z,99368.25
2018-03-02T07:42:31.865Z,99364.79
2018-03-02T07:45:00.549Z,99359.81
2018-03-02T07:47:29.180Z,99357.70
2018-03-02T07:49:58.842Z,99355.13
2018-03-02T07:52:27.491Z,99353.13
2018-03-02T07:54:56.214Z,99355.20
2018-03-02T07:57:25.010Z,99345.67
2018-03-02T07:59:53.696Z,99349.98
2018-03-02T08:02:22.334Z,99355.68
2018-03-02T08:04:51.951Z,99349.59
2018-03-02T08:07:21.506Z,99348.57
2018-03-02T08:09:50.282Z,99346.42
2018-03-02T08:12:19.070Z,99353.39
2018-03-02T08:14:47.756Z,99335.44
2018-03-02T08:17:16.439Z,99343.50
2018-03-02T08:19:45.223Z,99339.04
2018-03-02T08:22:13.878Z,99334.38
2018-03-02T08:24:42.595Z,99328.75
2018-03-02T08:27:11.682Z,99328.70
2018-03-02T08:29:40.383Z,99333.56
2018-03-02T08:32:08.930Z,99331.00
2018-03-02T08:34:37.916Z,99324.20
2018-03-02T08:37:06.617Z,99325.59
2018-03-02T08:39:35.324Z,99329.09
2018-03-02T08:42:04.469Z,99326.77
2018-03-02T08:44:33.925Z,99321.68
2018-03-02T08:47:02.721Z,99319.17
2018-03-02T08:49:31.396Z,99318.88
2018-03-02T08:52:00.092Z,99308.91
2018-03-02T08:54:28.878Z,99304.28
2018-03-02T08:56:57.662Z,99306.95
2018-03-02T08:59:26.253Z,99301.37
2018-03-02T09:01:54.836Z,99298.42
2018-03-02T09:04:23.903Z,99286.92
2018-03-02T09:06:52.614Z,99291.44
2018-03-02T09:09:21.239Z,99297.55
2018-03-02T09:11:50.861Z,99297.28
2018-03-02T09:14:19.594Z,99276.61
2018-03-02T09:16:48.168Z,99283.91
2018-03-02T09:19:16.909Z,99283.00
2018-03-02T09:21:46.363Z,99272.22
2018-03-02T09:24:14.938Z,99267.70
2018-03-02T09:26:43.944Z,99267.03
2018-03-02T09:29:12.530Z,99264.52
2018-03-02T09:31:41.222Z,99261.70
2018-03-02T09:34:10.002Z,99259.63
2018-03-02T09:36:38.687Z,99250.12
2018-03-02T09:39:07.327Z,99254.48
2018-03-02T09:41:36.060Z,99253.02
2018-03-02T09:44:04.744Z,99265.35
2018-03-02T09:46:33.431Z,99257.99
2018-03-02T09:49:02.215Z,99253.58
2018-03-02T09:51:30.865Z,99245.11
2018-03-02T09:53:59.598Z,99252.20
2018-03-02T09:56:28.724Z,99260.39
2018-03-02T09:58:58.191Z,99270.84
2018-03-02T10:01:26.838Z,99259.59
2018-03-02T10:03:55.599Z,99246.16
2018-03-02T10:06:25.068Z,99247.83
2018-03-02T10:08:53.632Z,99257.99
2018-03-02T10:11:22.439Z,99246.27
2018-03-02T10:13:51.224Z,99238.33
2018-03-02T10:16:19.910Z,99229.11
2018-03-02T10:18:48.859Z,99231.26
2018-03-02T10:21:17.588Z,99232.69
2018-03-02T10:23:46.276Z,99237.97
2018-03-02T10:26:15.260Z,99237.03
2018-03-02T10:28:43.927Z,99230.75
2018-03-02T10:31:13.431Z,99223.03
2018-03-02T10:33:42.324Z,99230.02
2018-03-02T10:36:11.012Z,99229.88
2018-03-02T10:38:39.650Z,99215.45
2018-03-02T10:41:08.383Z,99204.87
2018-03-02T10:43:37.068Z,99199.77
2018-03-02T10:46:05.754Z,99197.22
2018-03-02T10:48:34.697Z,99186.78
2018-03-02T10:51:04.148Z,99184.79
2018-03-02T10:53:32.732Z,99170.34
2018-03-02T10:56:01.826Z,99161.85
2018-03-02T10:58:30.468Z,99162.50
2018-03-02T11:00:59.201Z,99156.63
2018-03-02T11:03:36.403Z,99160.04
2018-03-02T11:06:05.793Z,99164.14
2018-03-02T11:08:34.470Z,99163.36
2018-03-02T11:11:03.256Z,99165.12
2018-03-02T11:13:31.952Z,99166.39
2018-03-02T11:16:01.451Z,99166.34
2018-03-02T11:18:30.344Z,99157.39
2018-03-02T11:20:58.920Z,99157.14
2018-03-02T11:23:27.617Z,99156.41
2018-03-02T11:25:56.512Z,99152.92
2018-03-02T11:28:25.233Z,99133.45
2018-03-02T11:30:53.876Z,99125.45
2018-03-02T11:33:22.912Z,99112.63
2018-03-02T11:35:51.558Z,99110.78
2018-03-02T11:38:20.283Z,99116.30
2018-03-02T11:40:49.178Z,99103.59
2018-03-02T11:43:17.863Z,99105.17
2018-03-02T11:45:46.503Z,99101.34
2018-03-02T11:48:15.625Z,99097.66
2018-03-02T11:50:44.336Z,99085.17
2018-03-02T11:53:13.122Z,99083.62
2018-03-02T11:55:41.908Z,99085.15
2018-03-02T11:58:10.593Z,99083.03
2018-03-02T12:00:39.260Z,99080.34
2018-03-02T12:03:08.253Z,99075.97
2018-03-02T12:05:36.958Z,99066.95
2018-03-02T12:08:05.533Z,99061.58
2018-03-02T12:10:34.455Z,99050.69
2018-03-02T12:13:03.228Z,99045.52
2018-03-02T12:15:31.909Z,99042.16
2018-03-02T12:18:00.793Z,99036.04
2018-03-02T12:20:29.426Z,99035.77
2018-03-02T12:22:58.889Z,99030.60
2018-03-02T12:25:27.612Z,99024.25
2018-03-02T12:27:57.072Z,99014.58
2018-03-02T12:30:25.724Z,99018.94
2018-03-02T12:32:54.751Z,99014.55
2018-03-02T12:35:23.337Z,99016.75
2018-03-02T12:37:51.884Z,99011.20
2018-03-02T12:40:20.770Z,99005.69
2018-03-02T12:42:49.494Z,99007.06
2018-03-02T12:45:18.129Z,99017.08
2018-03-02T12:47:47.693Z,99015.22
2018-03-02T12:50:16.389Z,99015.23
2018-03-02T12:52:45.033Z,99008.53
2018-03-02T12:55:13.808Z,99015.23
2018-03-02T12:57:42.531Z,98995.53
2018-03-02T13:00:11.326Z,98979.83
2018-03-02T13:02:40.054Z,98971.55
2018-03-02T13:05:09.373Z,98967.23
2018-03-02T13:07:38.065Z,98969.64
2018-03-02T13:10:06.832Z,98956.63
2018-03-02T13:12:36.292Z,98948.73
2018-03-02T13:15:04.916Z,98953.81
2018-03-02T13:17:34.386Z,98940.45
2018-03-02T13:20:03.131Z,98941.03
2018-03-02T13:22:43.373Z,98935.50
2018-03-02T13:25:12.835Z,98922.48
2018-03-02T13:27:59.256Z,98916.39
2018-03-02T13:30:29.449Z,98914.35
2018-03-02T13:36:05.014Z,98909.09
2018-03-02T13:38:34.622Z,98892.52
2018-03-02T13:41:21.142Z,98899.14
2018-03-02T13:43:50.088Z,98894.29
2018-03-02T13:46:18.881Z,98882.61
2018-03-02T13:49:06.223Z,98880.04
2018-03-02T13:51:35.675Z,98880.70
2018-03-02T13:54:04.311Z,98862.09
2018-03-02T13:56:51.756Z,98875.25
2018-03-02T13:59:20.472Z,98869.55
2018-03-02T14:01:49.111Z,98862.28
2018-03-02T14:04:35.400Z,98844.81
2018-03-02T14:07:04.864Z,98848.45
2018-03-02T14:09:33.450Z,98842.08
2018-03-02T14:12:02.124Z,98848.00
2018-03-02T14:14:30.921Z,98836.88
2018-03-02T14:16:59.486Z,98842.33
2018-03-02T14:19:28.392Z,98847.72
2018-03-02T14:21:57.078Z,98846.69
2018-03-02T14:24:25.764Z,98830.83
2018-03-02T14:26:55.638Z,98837.00
2018-03-02T14:29:24.363Z,98832.45
2018-03-02T14:31:53.053Z,98817.22
2018-03-02T14:34:21.734Z,98818.89
2018-03-02T14:36:50.420Z,98826.42
2018-03-02T14:39:19.009Z,98821.25
2018-03-02T14:41:47.692Z,98807.57
2018-03-02T14:44:16.380Z,98814.69
2018-03-02T14:46:45.030Z,98808.94
2018-03-02T14:49:14.121Z,98798.50
2018-03-02T14:51:42.844Z,98793.72
2018-03-02T14:54:11.580Z,98789.04
2018-03-02T14:56:41.236Z,98782.45
2018-03-02T14:59:09.932Z,98784.19
2018-03-02T15:01:38.629Z,98784.98
2018-03-02T15:04:07.597Z,98801.91
2018-03-02T15:06:36.144Z,98782.39
2018-03-02T15:09:04.981Z,98778.35
2018-03-02T15:11:33.866Z,98782.95
2018-03-02T15:14:02.453Z,98780.22
2018-03-02T15:16:31.967Z,98774.10
2018-03-02T15:19:01.533Z,98776.88
2018-03-02T15:21:30.229Z,98774.33
2018-03-02T15:23:58.789Z,98768.79
2018-03-02T15:26:27.535Z,98772.27
2018-03-02T15:28:56.875Z,98769.92
2018-03-02T15:31:25.675Z,98785.38
2018-03-02T15:33:54.442Z,98787.32
2018-03-02T15:36:23.154Z,98776.24
2018-03-02T15:38:51.830Z,98775.44
2018-03-02T15:41:20.616Z,98771.09
2018-03-02T15:43:49.317Z,98764.57
2018-03-02T15:46:18.004Z,98757.36
2018-03-02T15:48:46.789Z,98746.27
2018-03-02T15:51:15.361Z,98746.33
2018-03-02T15:53:44.062Z,98739.23
2018-03-02T15:56:12.743Z,98729.08
2018-03-02T15:58:41.424Z,98729.48
2018-03-02T16:01:10.084Z,98731.20
2018-03-02T16:03:39.001Z,98735.71
2018-03-02T16:06:07.649Z,98744.27
2018-03-02T16:08:36.374Z,98751.59
2018-03-02T16:11:05.538Z,98761.56
2018-03-02T16:13:34.147Z,98750.66
2018-03-02T16:16:02.848Z,98747.66
2018-03-02T16:18:31.690Z,98726.22
2018-03-02T16:21:00.427Z,98721.28
2018-03-02T16:23:29.214Z,98729.89
2018-03-02T16:25:58.264Z,98737.34
2018-03-02T16:28:26.993Z,98734.85
2018-03-02T16:30:55.677Z,98726.15
2018-03-02T16:33:24.416Z,98716.75
2018-03-02T16:35:53.111Z,98721.58
2018-03-02T16:38:21.832Z,98728.13
2018-03-02T16:40:50.522Z,98723.50
2018-03-02T16:43:19.314Z,98720.44
2018-03-02T16:45:48.004Z,98717.38
2018-03-02T16:48:16.850Z,98714.29
2018-03-02T16:50:45.570Z,98711.55
2018-03-02T16:53:14.236Z,98719.02
2018-03-02T16:55:43.003Z,98712.13
2018-03-02T16:58:12.340Z,98705.36
2018-03-02T17:00:41.037Z,98699.13
2018-03-02T17:03:09.704Z,98705.23
2018-03-02T17:05:38.448Z,98694.78
2018-03-02T17:08:07.907Z,98708.11
2018-03-02T17:10:37.557Z,98706.16
2018-03-02T17:13:07.023Z,98692.73
2018-03-02T17:15:35.671Z,98680.41
2018-03-02T17:18:04.493Z,98675.57
2018-03-02T17:20:33.042Z,98678.42
2018-03-02T17:23:01.724Z,98670.45
2018-03-02T17:25:30.719Z,98679.33
2018-03-02T17:27:59.349Z,98670.84
2018-03-02T17:30:28.003Z,98678.49
2018-03-02T17:32:56.818Z,98671.72
2018-03-02T17:35:25.516Z,98670.09
2018-03-02T17:37:54.190Z,98682.28
2018-03-02T17:40:23.149Z,98684.17
2018-03-02T17:42:51.868Z,98673.16
2018-03-02T17:45:20.533Z,98662.59
2018-03-02T17:47:49.754Z,98655.17
2018-03-02T17:50:18.494Z,98657.39
2018-03-02T17:52:47.226Z,98665.80
2018-03-02T17:55:16.219Z,98660.17
2018-03-02T17:57:44.805Z,98655.00
2018-03-02T18:00:13.486Z,98657.28
2018-03-02T18:02:42.312Z,98656.27
2018-03-02T18:05:11.787Z,98646.20
2018-03-02T18:07:41.065Z,98628.83
2018-03-02T18:10:09.871Z,98633.94
2018-03-02T18:12:38.556Z,98645.69
2018-03-02T18:15:07.221Z,98647.79
2018-03-02T18:17:35.989Z,98638.20
2018-03-02T18:20:04.710Z,98644.47
2018-03-02T18:22:33.397Z,98657.61
2018-03-02T18:25:02.086Z,98669.84
2018-03-02T18:27:30.770Z,98665.73
2018-03-02T18:29:59.406Z,98653.75
2018-03-02T18:32:29.063Z,98652.91
2018-03-02T18:34:57.750Z,98652.72
2018-03-02T18:37:26.325Z,98650.28
2018-03-02T18:39:55.329Z,98637.97
2018-03-02T18:42:24.015Z,98638.52
2018-03-02T18:44:52.659Z,98639.50
2018-03-02T18:47:21.485Z,98641.00
2018-03-02T18:49:50.171Z,98638.19
2018-03-02T18:52:18.812Z,98630.66
2018-03-02T18:54:47.446Z,98623.50
2018-03-02T18:57:16.098Z,98625.57
2018-03-02T18:59:45.066Z,98627.38
2018-03-02T19:02:14.632Z,98624.23
2018-03-02T19:04:43.431Z,98624.16
2018-03-02T19:07:12.200Z,98617.77
2018-03-02T19:09:41.160Z,98622.41
2018-03-02T19:12:09.880Z,98616.77
2018-03-02T19:14:38.547Z,98615.30
2018-03-02T19:17:07.558Z,98624.38
2018-03-02T19:19:36.207Z,98621.28
2018-03-02T19:22:04.830Z,98623.41
2018-03-02T19:24:33.438Z,98617.61
2018-03-02T19:27:02.203Z,98614.57
2018-03-02T19:29:30.853Z,98610.58
2018-03-02T19:31:59.620Z,98613.54
2018-03-02T19:34:29.084Z,98620.69
2018-03-02T19:36:58.583Z,98621.63
2018-03-02T19:39:27.387Z,98614.56
2018-03-02T19:41:56.067Z,98607.88
2018-03-02T19:44:24.847Z,98604.38
2018-03-02T19:46:53.939Z,98600.55
2018-03-02T19:49:22.991Z,98598.34
2018-03-02T19:51:52.537Z,98596.52
2018-03-02T19:54:21.328Z,98589.50
2018-03-02T19:56:50.019Z,98576.48
2018-03-02T19:59:18.636Z,98572.80
2018-03-02T20:01:48.159Z,98592.16
2018-03-02T20:04:16.889Z,98588.25
2018-03-02T20:06:45.519Z,98574.75
2018-03-02T20:09:15.036Z,98563.84
2018-03-02T20:11:43.769Z,98574.81
2018-03-02T20:14:12.522Z,98566.41
2018-03-02T20:16:41.240Z,98559.08
2018-03-02T20:19:09.829Z,98560.09
2018-03-02T20:21:38.476Z,98540.67
2018-03-02T20:24:07.243Z,98539.20
2018-03-02T20:26:36.705Z,98547.08
2018-03-02T20:29:05.491Z,98533.62
2018-03-02T20:31:34.221Z,98524.21
2018-03-02T20:34:03.685Z,98525.80
2018-03-02T20:36:32.304Z,98524.89
2018-03-02T20:39:01.869Z,98517.25
2018-03-02T20:41:30.554Z,98499.94
2018-03-02T20:43:59.185Z,98496.41
2018-03-02T20:46:28.749Z,98520.14
2018-03-02T20:48:57.433Z,98523.69
2018-03-02T20:51:26.008Z,98536.11
2018-03-02T20:53:54.905Z,98518.03
2018-03-02T20:56:23.593Z,98518.22
2018-03-02T20:58:52.275Z,98505.75
2018-03-02T21:01:21.138Z,98512.62
2018-03-02T21:03:49.862Z,98511.59
2018-03-02T21:06:18.540Z,98515.55
2018-03-02T21:08:47.226Z,98500.95
2018-03-02T21:11:16.734Z,98504.76
2018-03-02T21:13:45.297Z,98514.45
2018-03-02T21:16:14.015Z,98511.52
2018-03-02T21:18:44.218Z,98511.75
2018-03-02T21:21:12.797Z,98506.87
2018-03-02T21:23:41.591Z,98507.41
2018-03-02T21:26:10.276Z,98508.22
2018-03-02T21:28:39.025Z,98506.58
2018-03-02T21:31:08.122Z,98487.62
2018-03-02T21:33:36.849Z,98474.27
2018-03-02T21:36:05.534Z,98455.77
2018-03-02T21:38:34.221Z,98462.53
2018-03-02T21:41:02.808Z,98484.20
2018-03-02T21:43:31.456Z,98484.86
2018-03-02T21:46:00.177Z,98474.72
2018-03-02T21:48:28.818Z,98477.14
2018-03-02T21:50:57.549Z,98481.88
2018-03-02T21:53:26.334Z,98480.17
2018-03-02T21:55:55.020Z,98476.08
2018-03-02T21:58:23.652Z,98470.20
2018-03-02T22:00:53.360Z,98471.29
2018-03-02T22:03:22.777Z,98474.08
2018-03-02T22:05:51.506Z,98444.19
2018-03-02T22:08:20.604Z,98443.98
2018-03-02T22:10:49.150Z,98443.55
2018-03-02T22:13:17.871Z,98437.73
2018-03-02T22:15:46.656Z,98426.98
2018-03-02T22:18:15.308Z,98443.75
2018-03-02T22:20:44.027Z,98436.67
2018-03-02T22:23:12.769Z,98430.77
2018-03-02T22:25:41.462Z,98402.55
2018-03-02T22:28:10.183Z,98413.91
2018-03-02T22:30:38.872Z,98407.28
2018-03-02T22:33:08.344Z,98422.70
2018-03-02T22:35:36.978Z,98394.95
2018-03-02T22:38:06.339Z,98410.27
2018-03-02T22:40:35.011Z,98401.72
2018-03-02T22:43:03.700Z,98404.18
2018-03-02T22:45:32.428Z,98393.86
2018-03-02T22:48:01.884Z,98388.66
2018-03-02T22:50:30.537Z,98387.69
2018-03-02T22:52:59.262Z,98387.23
2018-03-02T22:55:27.899Z,98385.55
2018-03-02T22:57:56.627Z,98396.37
2018-03-02T23:00:25.344Z,98410.30
2018-03-02T23:02:54.047Z,98398.20
2018-03-02T23:05:23.409Z,98403.80
2018-03-02T23:07:52.291Z,98411.69
2018-03-02T23:10:20.933Z,98412.29
2018-03-02T23:12:49.667Z,98401.52
2018-03-02T23:15:18.662Z,98388.33
2018-03-02T23:17:47.451Z,98393.37
2018-03-02T23:20:16.136Z,98373.19
2018-03-02T23:22:45.020Z,98347.56
2018-03-02T23:25:13.705Z,98349.53
2018-03-02T23:27:42.354Z,98334.78
2018-03-02T23:30:11.077Z,98318.58
2018-03-02T23:32:39.714Z,98325.14
2018-03-02T23:35:09.029Z,98337.83
2018-03-02T23:37:37.899Z,98341.22
2018-03-02T23:40:07.413Z,98345.16
2018-03-02T23:42:36.865Z,98357.66
2018-03-02T23:45:05.650Z,98361.47
2018-03-02T23:47:34.334Z,98348.77
2018-03-02T23:50:02.986Z,98309.93
2018-03-02T23:52:31.751Z,98330.33
2018-03-02T23:55:01.277Z,98347.81
2018-03-02T23:57:29.998Z,98338.80
2018-03-02T23:59:59.202Z,98316.17
